Time;durP1;ratioP1;P1;durP2;ratioP2;P2;SDS_P1;SDS_P2;PMS_P1;PMS_P2;Temp;Humidity;BMP_temperature;BMP_pressure;BME280_temperature;BME280_humidity;BME280_pressure;Samples;Min_cycle;Max_cycle;Signal;HPM_P1;HPM_P2
2023/08/07 00:01:47;;;;;;;2.78;1.30;;;;;;;14.07;63.38;98263.56;5128504;28;20088;-69
2023/08/07 00:04:15;;;;;;;1.75;1.30;;;;;;;14.06;62.88;98230.75;5128996;28;20039;-70
2023/08/07 00:06:41;;;;;;;2.58;1.40;;;;;;;14.05;62.67;98225.56;5127660;28;20305;-71
2023/08/07 00:09:08;;;;;;;1.67;1.20;;;;;;;13.38;62.67;98115.06;5127893;28;20194;-70
2023/08/07 00:11:35;;;;;;;2.50;1.30;;;;;;;14.10;63.28;98234.84;5129071;28;20210;-70
2023/08/07 00:14:03;;;;;;;2.30;1.40;;;;;;;14.09;62.67;98249.13;5128638;28;20316;-71
2023/08/07 00:16:29;;;;;;;1.58;1.20;;;;;;;14.09;62.51;98229.63;5128795;28;20039;-70
2023/08/07 00:18:57;;;;;;;2.03;1.40;;;;;;;14.08;62.83;98236.78;5128898;28;20035;-71
2023/08/07 00:21:25;;;;;;;1.83;1.20;;;;;;;14.09;62.43;98234.97;5129115;28;20043;-71
2023/08/07 00:23:52;;;;;;;2.17;1.33;;;;;;;14.08;62.98;98254.59;5127688;28;20051;-70
2023/08/07 00:26:19;;;;;;;2.40;1.40;;;;;;;14.08;62.31;98251.94;5128582;28;20319;-71
2023/08/07 00:28:47;;;;;;;3.53;1.40;;;;;;;14.03;62.68;98259.47;5128348;28;20040;-70
2023/08/07 00:31:13;;;;;;;2.65;1.60;;;;;;;14.03;62.49;98275.47;5128443;28;20051;-70
2023/08/07 00:33:41;;;;;;;2.22;1.20;;;;;;;14.04;62.34;98266.50;5128541;28;20039;-70
2023/08/07 00:36:08;;;;;;;3.05;1.80;;;;;;;14.01;62.77;98251.63;5128774;27;20040;-70
2023/08/07 00:38:36;;;;;;;2.03;1.40;;;;;;;13.44;62.54;98157.16;5128887;28;20062;-70
2023/08/07 00:41:07;;;;;;;2.03;1.23;;;;;;;14.08;62.86;98265.25;5129320;28;20096;-70
2023/08/07 00:43:34;;;;;;;2.38;1.40;;;;;;;13.97;62.80;98255.53;5127172;28;20039;-70
2023/08/07 00:46:00;;;;;;;2.45;1.48;;;;;;;14.04;62.91;98274.47;5128175;28;20172;-70
2023/08/07 00:48:27;;;;;;;2.90;1.58;;;;;;;14.00;62.34;98275.72;5127231;28;20082;-71
2023/08/07 00:50:55;;;;;;;2.65;1.33;;;;;;;14.01;62.86;98275.59;5127188;28;20337;-70
2023/08/07 00:53:22;;;;;;;2.10;1.33;;;;;;;14.03;62.79;98268.31;5127992;28;20043;-70
2023/08/07 00:55:50;;;;;;;2.20;1.42;;;;;;;14.00;62.78;98281.06;5128181;28;20127;-70
2023/08/07 00:58:18;;;;;;;4.63;1.75;;;;;;;14.02;62.70;98273.78;5128146;28;20047;-70
2023/08/07 01:00:45;;;;;;;2.05;1.30;;;;;;;13.39;62.51;98177.09;5126988;28;20040;-69
2023/08/07 01:03:13;;;;;;;4.38;2.08;;;;;;;14.03;62.75;98291.44;5126897;28;20035;-69
2023/08/07 01:05:41;;;;;;;2.08;1.50;;;;;;;14.02;62.79;98261.28;5128038;28;20088;-70
2023/08/07 01:08:09;;;;;;;2.05;1.48;;;;;;;14.01;62.59;98288.91;5127878;28;20119;-70
2023/08/07 01:10:57;;;;;;;4.38;1.40;;;;;;;13.99;62.18;98277.53;5127379;28;20043;-70
2023/08/07 01:13:32;;;;;;;2.40;1.40;;;;;;;14.00;62.09;98283.72;5127330;28;20043;-70
2023/08/07 01:16:07;;;;;;;2.15;1.40;;;;;;;13.58;62.37;98227.81;5126739;28;20046;-70
2023/08/07 01:18:35;;;;;;;1.73;1.23;;;;;;;13.62;62.12;98245.22;5127048;28;20055;-70
2023/08/07 01:21:04;;;;;;;2.70;1.60;;;;;;;13.98;62.12;98301.66;5127731;28;20093;-70
2023/08/07 01:23:32;;;;;;;2.50;1.50;;;;;;;13.98;62.31;98299.81;5127730;28;20245;-70
2023/08/07 01:25:59;;;;;;;1.95;1.50;;;;;;;13.98;61.80;98296.31;5127196;28;20110;-71
2023/08/07 01:28:33;;;;;;;4.15;1.40;;;;;;;13.98;62.09;98293.66;5126483;28;20059;-70
2023/08/07 01:31:04;;;;;;;;;;;;;;;13.98;62.01;98310.47;5128318;28;20047;-71
2023/08/07 01:33:35;;;;;;;2.20;1.42;;;;;;;13.97;62.21;98297.28;5126345;28;19961;-70
2023/08/07 01:36:06;;;;;;;2.70;1.67;;;;;;;13.96;61.08;98339.06;5127667;28;20051;-71
2023/08/07 01:38:36;;;;;;;2.40;1.30;;;;;;;13.99;61.55;98308.66;5127213;28;20043;-71
2023/08/07 01:41:04;;;;;;;2.28;1.67;;;;;;;14.01;61.53;98298.72;5126067;28;20043;-70
2023/08/07 01:43:32;;;;;;;2.83;1.60;;;;;;;13.89;61.45;98287.31;5127232;28;20055;-70
2023/08/07 01:45:59;;;;;;;2.13;1.40;;;;;;;14.02;61.49;98289.75;5126925;28;20144;-70
2023/08/07 01:48:26;;;;;;;2.10;1.38;;;;;;;14.03;61.71;98302.94;5126113;28;20350;-70
2023/08/07 01:50:54;;;;;;;2.08;1.33;;;;;;;13.34;61.48;98256.47;5125843;28;20045;-70
2023/08/07 01:53:21;;;;;;;3.20;1.70;;;;;;;13.40;60.99;98208.91;5127097;28;20106;-70
2023/08/07 01:55:50;;;;;;;2.15;1.38;;;;;;;14.00;61.04;98321.00;5125415;28;20055;-70
2023/08/07 01:58:19;;;;;;;3.58;1.92;;;;;;;14.01;60.94;98320.03;5127290;28;20162;-70
2023/08/07 02:00:47;;;;;;;2.40;1.40;;;;;;;13.72;61.11;98270.09;5125867;28;20062;-69
2023/08/07 02:03:14;;;;;;;2.80;1.42;;;;;;;13.90;60.66;98302.31;5126354;28;20088;-70
2023/08/07 02:05:43;;;;;;;3.10;1.92;;;;;;;14.10;60.56;98316.59;5125692;28;20044;-70
2023/08/07 02:08:10;;;;;;;2.42;1.70;;;;;;;14.04;60.48;98320.63;5126479;28;20055;-72
2023/08/07 02:10:37;;;;;;;2.35;1.55;;;;;;;14.06;60.44;98320.47;5126317;28;20315;-70
2023/08/07 02:13:05;;;;;;;2.35;1.48;;;;;;;14.03;60.35;98329.59;5126545;28;20299;-70
2023/08/07 02:15:32;;;;;;;2.88;1.65;;;;;;;14.03;60.48;98318.09;5108837;28;20043;-70
2023/08/07 02:17:58;;;;;;;2.10;1.52;;;;;;;14.03;60.47;98329.59;5126622;28;20035;-70
2023/08/07 02:20:26;;;;;;;2.75;1.58;;;;;;;14.02;60.11;98313.72;5125875;28;20345;-71
2023/08/07 02:22:52;;;;;;;3.78;1.90;;;;;;;14.04;59.96;98319.78;5125693;28;20301;-71
2023/08/07 02:25:19;;;;;;;2.00;1.50;;;;;;;14.04;60.77;98314.44;5126271;28;20092;-69
2023/08/07 02:27:46;;;;;;;3.72;1.50;;;;;;;14.01;60.20;98333.34;5126414;28;20047;-70
2023/08/07 02:30:14;;;;;;;2.88;1.45;;;;;;;13.83;60.13;98286.97;5125842;28;20035;-70
2023/08/07 02:32:44;;;;;;;2.30;1.50;;;;;;;13.85;60.31;98298.34;5126439;28;20051;-70
2023/08/07 02:35:12;;;;;;;2.50;1.40;;;;;;;13.99;59.82;98325.50;5126421;28;20101;-70
2023/08/07 02:37:38;;;;;;;2.97;1.60;;;;;;;13.78;60.02;98285.56;5126397;28;20043;-70
2023/08/07 02:40:06;;;;;;;2.90;1.70;;;;;;;13.98;59.77;98309.63;5108561;28;20258;-69
2023/08/07 02:42:33;;;;;;;2.60;1.52;;;;;;;13.98;59.61;98312.31;5125259;28;20085;-70
2023/08/07 02:44:59;;;;;;;2.63;1.67;;;;;;;13.99;59.64;98300.66;5126203;28;20055;-70
2023/08/07 02:47:27;;;;;;;2.72;1.75;;;;;;;14.00;59.87;98302.38;5126930;28;20044;-70
2023/08/07 02:49:54;;;;;;;2.72;1.60;;;;;;;13.97;59.73;98302.63;5126514;28;20332;-70
2023/08/07 02:52:21;;;;;;;2.78;1.80;;;;;;;13.94;59.29;98282.41;5126359;28;20054;-70
2023/08/07 02:54:48;;;;;;;2.63;1.80;;;;;;;13.94;59.30;98293.06;5125429;28;20043;-70
2023/08/07 02:57:15;;;;;;;3.15;1.77;;;;;;;13.92;59.72;98299.50;5124707;28;20074;-70
2023/08/07 02:59:41;;;;;;;3.83;2.17;;;;;;;13.92;59.70;98295.03;5126219;28;20066;-70
2023/08/07 03:02:08;;;;;;;3.22;2.05;;;;;;;13.87;59.11;98293.72;5125044;28;20040;-71
2023/08/07 03:04:36;;;;;;;3.10;1.60;;;;;;;13.87;58.98;98289.25;5125830;28;20229;-71
2023/08/07 03:07:03;;;;;;;2.17;1.48;;;;;;;13.94;59.23;98300.22;5126114;28;20043;-70
2023/08/07 03:09:30;;;;;;;2.13;1.42;;;;;;;13.93;59.34;98298.53;5126039;28;20039;-70
2023/08/07 03:11:56;;;;;;;2.08;1.40;;;;;;;13.90;58.94;98291.66;5126413;28;20061;-70
2023/08/07 03:14:23;;;;;;;2.05;1.40;;;;;;;13.81;58.72;98313.75;5125796;28;20104;-71
2023/08/07 03:16:50;;;;;;;4.65;1.50;;;;;;;13.62;59.13;98265.69;5126053;28;20040;-70
2023/08/07 03:19:21;;;;;;;2.85;1.60;;;;;;;13.48;59.00;98238.41;5126330;28;20044;-70
2023/08/07 03:21:49;;;;;;;3.58;2.05;;;;;;;13.80;58.74;98288.09;5126335;28;20040;-71
2023/08/07 03:24:16;;;;;;;2.78;1.75;;;;;;;13.75;59.13;98277.81;5126228;28;20230;-72
2023/08/07 03:26:44;;;;;;;3.30;1.63;;;;;;;13.25;58.69;98214.69;5124859;28;20084;-70
2023/08/07 03:29:11;;;;;;;2.30;1.48;;;;;;;13.75;59.09;98303.59;5126191;28;20187;-70
2023/08/07 03:31:37;;;;;;;2.50;1.50;;;;;;;13.36;58.97;98218.13;5125943;28;20227;-72
2023/08/07 03:34:04;;;;;;;2.90;1.77;;;;;;;13.70;59.11;98292.50;5125871;28;20043;-70
2023/08/07 03:36:31;;;;;;;2.58;1.70;;;;;;;13.69;59.68;98296.13;5125283;28;20042;-70
2023/08/07 03:38:59;;;;;;;2.30;1.63;;;;;;;13.72;59.12;98293.22;5124758;28;20040;-71
2023/08/07 03:41:27;;;;;;;2.50;1.50;;;;;;;12.31;59.41;98075.41;5128172;28;20050;-70
2023/08/07 03:43:54;;;;;;;2.90;1.48;;;;;;;13.63;59.39;98307.31;5129254;28;20066;-71
2023/08/07 03:46:21;;;;;;;2.40;1.50;;;;;;;13.33;59.41;98254.78;5129404;28;20047;-69
2023/08/07 03:48:48;;;;;;;7.00;2.20;;;;;;;13.63;59.33;98318.81;5128299;28;20047;-70
2023/08/07 03:51:16;;;;;;;2.55;1.65;;;;;;;13.64;59.62;98288.53;5129483;28;20088;-71
2023/08/07 03:53:43;;;;;;;4.20;2.15;;;;;;;13.66;59.54;98323.88;5128143;28;20039;-70
2023/08/07 03:56:11;;;;;;;2.28;1.52;;;;;;;13.23;59.61;98233.44;5128642;28;20059;-70
2023/08/07 03:58:38;;;;;;;2.40;1.58;;;;;;;13.43;59.65;98256.59;5129533;28;20065;-70
2023/08/07 04:01:05;;;;;;;2.42;1.45;;;;;;;13.63;59.86;98302.81;5128995;28;20255;-71
2023/08/07 04:03:31;;;;;;;2.88;1.70;;;;;;;13.63;59.82;98284.19;5128051;28;20039;-71
2023/08/07 04:06:00;;;;;;;3.97;1.48;;;;;;;13.61;59.84;98283.47;5128806;28;20039;-70
2023/08/07 04:08:27;;;;;;;3.00;1.65;;;;;;;13.58;60.09;98290.88;5129019;28;20192;-70
2023/08/07 04:11:02;;;;;;;3.35;1.63;;;;;;;13.57;60.03;98290.03;5129022;28;20065;-69
2023/08/07 04:13:30;;;;;;;2.35;1.40;;;;;;;13.33;60.04;98249.47;5128739;28;20307;-71
2023/08/07 04:15:58;;;;;;;1.77;1.27;;;;;;;13.56;59.86;98290.16;5128667;28;20039;-70
2023/08/07 04:18:25;;;;;;;2.78;1.50;;;;;;;13.55;60.04;98281.34;5128684;28;20031;-71
2023/08/07 04:20:53;;;;;;;2.75;1.40;;;;;;;13.51;60.43;98279.91;5128936;28;20062;-71
2023/08/07 04:23:21;;;;;;;2.20;1.40;;;;;;;13.53;60.21;98298.41;5127741;28;20085;-70
2023/08/07 04:25:48;;;;;;;2.38;1.52;;;;;;;13.50;60.63;98280.03;5127663;28;20311;-70
2023/08/07 04:28:15;;;;;;;2.50;1.60;;;;;;;13.49;60.51;98287.16;5127510;28;20245;-71
2023/08/07 04:30:44;;;;;;;3.13;1.55;;;;;;;13.46;60.84;98304.25;5127874;28;20035;-71
2023/08/07 04:33:11;;;;;;;1.88;1.20;;;;;;;13.45;61.06;98267.94;5127414;28;20105;-71
2023/08/07 04:35:38;;;;;;;2.55;1.38;;;;;;;13.28;61.12;98225.91;5128544;28;20058;-71
2023/08/07 04:38:05;;;;;;;2.67;1.42;;;;;;;13.46;61.23;98266.97;5127468;28;20286;-70
2023/08/07 04:40:31;;;;;;;1.60;1.27;;;;;;;13.42;61.38;98252.25;5127348;28;20077;-71
2023/08/07 04:42:58;;;;;;;2.25;1.40;;;;;;;13.39;61.16;98272.91;5128138;28;20043;-71
2023/08/07 04:45:25;;;;;;;1.90;1.25;;;;;;;13.39;61.72;98259.59;5127162;28;20047;-70
2023/08/07 04:47:53;;;;;;;1.90;1.30;;;;;;;13.38;61.49;98260.56;5128124;28;20052;-70
2023/08/07 04:50:20;;;;;;;2.22;1.30;;;;;;;13.35;62.10;98259.03;5127950;28;20051;-70
2023/08/07 04:52:46;;;;;;;3.17;1.35;;;;;;;13.35;61.75;98276.81;5126085;28;20039;-71
2023/08/07 04:55:13;;;;;;;1.50;1.10;;;;;;;13.33;61.79;98278.75;5127569;28;20047;-71
2023/08/07 04:57:40;;;;;;;1.55;1.20;;;;;;;13.33;61.92;98270.75;5127842;28;20284;-71
2023/08/07 05:00:09;;;;;;;2.00;1.40;;;;;;;13.31;61.62;98278.88;5128383;28;20046;-70
2023/08/07 05:02:36;;;;;;;2.15;1.30;;;;;;;13.14;61.37;98237.72;5127789;28;20190;-70
2023/08/07 05:05:05;;;;;;;2.10;1.30;;;;;;;13.09;61.02;98231.94;5127219;28;20096;-71
2023/08/07 05:07:33;;;;;;;1.65;1.23;;;;;;;13.33;61.35;98300.03;5127899;28;20067;-71
2023/08/07 05:10:00;;;;;;;1.40;1.00;;;;;;;13.33;61.30;98270.75;5126659;28;20036;-71
2023/08/07 05:12:27;;;;;;;1.55;1.20;;;;;;;13.32;60.72;98282.38;5126666;28;20043;-71
2023/08/07 05:14:54;;;;;;;3.13;1.40;;;;;;;13.36;60.24;98278.50;5128039;28;20046;-70
2023/08/07 05:17:20;;;;;;;1.58;1.10;;;;;;;13.29;60.31;98279.97;5127725;28;20043;-70
2023/08/07 05:19:47;;;;;;;1.88;1.20;;;;;;;13.32;59.99;98280.56;5127910;28;20043;-70
2023/08/07 05:22:17;;;;;;;1.75;1.20;;;;;;;13.10;60.04;98252.25;5126538;28;20332;-70
2023/08/07 05:24:45;;;;;;;1.75;1.30;;;;;;;13.30;59.57;98290.50;5126506;28;20047;-70
2023/08/07 05:27:12;;;;;;;2.92;1.20;;;;;;;13.28;59.92;98278.28;5126695;28;20047;-70
2023/08/07 05:29:44;;;;;;;2.00;1.38;;;;;;;13.33;59.61;98323.97;5127376;28;20054;-70
2023/08/07 05:32:11;;;;;;;2.38;1.50;;;;;;;13.26;59.46;98322.81;5126566;28;20070;-71
2023/08/07 05:34:37;;;;;;;1.92;1.20;;;;;;;13.23;59.59;98326.56;5127447;28;20062;-71
2023/08/07 05:37:05;;;;;;;1.33;1.10;;;;;;;13.26;59.64;98314.81;5126250;28;20309;-70
2023/08/07 05:39:33;;;;;;;6.43;1.30;;;;;;;13.31;59.48;98310.81;5126208;28;20044;-70
2023/08/07 05:42:01;;;;;;;1.52;1.20;;;;;;;13.30;59.50;98325.09;5125874;28;20257;-71
2023/08/07 05:44:28;;;;;;;1.60;1.10;;;;;;;13.35;59.60;98343.34;5126082;28;20118;-70
2023/08/07 05:46:55;;;;;;;1.67;1.23;;;;;;;13.30;59.16;98338.38;5109219;28;20047;-70
2023/08/07 05:49:22;;;;;;;1.40;1.10;;;;;;;13.25;59.24;98380.50;5125777;28;20096;-70
2023/08/07 05:51:49;;;;;;;2.97;1.20;;;;;;;13.23;58.81;98353.16;5127252;28;20062;-71
2023/08/07 05:54:16;;;;;;;1.55;1.10;;;;;;;13.24;58.85;98343.38;5125836;28;20322;-70
2023/08/07 05:56:44;;;;;;;2.75;1.30;;;;;;;13.24;59.20;98352.19;5126682;28;20055;-70
2023/08/07 05:59:11;;;;;;;1.60;1.10;;;;;;;13.23;59.63;98365.63;5127185;28;20275;-70
2023/08/07 06:01:38;;;;;;;1.60;1.30;;;;;;;13.21;59.69;98375.53;5126859;28;20100;-70
2023/08/07 06:04:05;;;;;;;1.65;1.10;;;;;;;13.15;60.03;98375.06;5126379;28;20050;-70
2023/08/07 06:06:34;;;;;;;2.88;1.30;;;;;;;13.16;60.27;98376.75;5127059;28;20104;-69
2023/08/07 06:09:01;;;;;;;2.95;1.23;;;;;;;13.10;60.67;98405.69;5126645;28;20039;-70
2023/08/07 06:11:28;;;;;;;2.10;1.23;;;;;;;12.93;60.65;98347.69;5126363;28;20059;-70
2023/08/07 06:13:56;;;;;;;1.23;1.13;;;;;;;13.09;60.74;98391.53;5126684;28;20047;-69
2023/08/07 06:16:23;;;;;;;1.45;1.08;;;;;;;13.12;60.78;98385.13;5125583;28;20039;-70
2023/08/07 06:18:50;;;;;;;1.17;1.00;;;;;;;12.84;60.49;98342.13;5125399;28;20046;-69
2023/08/07 06:21:16;;;;;;;1.38;1.10;;;;;;;13.00;59.69;98362.16;5125445;28;20260;-69
2023/08/07 06:23:43;;;;;;;1.40;1.00;;;;;;;13.03;60.27;98352.13;5125518;28;20089;-69
2023/08/07 06:26:10;;;;;;;1.80;1.20;;;;;;;13.04;59.79;98348.50;5126432;28;20096;-71
2023/08/07 06:28:37;;;;;;;1.65;1.10;;;;;;;12.58;59.46;98303.50;5126024;28;20055;-71
2023/08/07 06:31:07;;;;;;;1.65;1.10;;;;;;;13.02;59.35;98334.47;5126142;28;20059;-69
2023/08/07 06:33:34;;;;;;;2.60;1.10;;;;;;;13.05;59.01;98330.72;5126385;28;20035;-69
2023/08/07 06:36:01;;;;;;;3.80;1.80;;;;;;;13.12;58.81;98345.22;5125055;28;20211;-68
2023/08/07 06:38:28;;;;;;;1.40;1.05;;;;;;;12.96;58.45;98307.53;5125095;28;20093;-67
2023/08/07 06:40:54;;;;;;;1.65;1.15;;;;;;;13.14;57.86;98322.00;5125346;28;20114;-68
2023/08/07 06:43:21;;;;;;;1.75;1.33;;;;;;;13.14;57.56;98317.50;5125075;28;20109;-68
2023/08/07 06:45:50;;;;;;;2.30;1.10;;;;;;;13.16;57.71;98317.38;5125904;28;20089;-68
2023/08/07 06:48:18;;;;;;;1.88;1.25;;;;;;;13.21;57.57;98322.34;5125894;28;20214;-69
2023/08/07 06:50:47;;;;;;;2.22;1.20;;;;;;;13.27;57.15;98320.00;5125876;28;20044;-68
2023/08/07 06:53:14;;;;;;;3.08;1.42;;;;;;;13.19;57.01;98353.53;5126108;28;20039;-69
2023/08/07 06:55:42;;;;;;;4.10;1.38;;;;;;;13.18;56.92;98359.84;5125749;28;20055;-70
2023/08/07 06:58:09;;;;;;;2.60;1.20;;;;;;;13.16;57.32;98325.38;5125073;28;20286;-69
2023/08/07 07:00:36;;;;;;;3.08;1.10;;;;;;;13.19;57.34;98310.97;5126087;28;20222;-70
2023/08/07 07:03:03;;;;;;;3.22;1.35;;;;;;;13.10;56.77;98385.25;5125798;28;20169;-70
2023/08/07 07:05:32;;;;;;;3.72;1.30;;;;;;;13.09;57.11;98330.34;5125379;28;20054;-69
2023/08/07 07:07:59;;;;;;;2.50;1.35;;;;;;;13.09;57.32;98353.44;5126034;28;20043;-70
2023/08/07 07:10:26;;;;;;;3.53;1.15;;;;;;;13.08;57.55;98344.63;5125684;28;20035;-70
2023/08/07 07:12:53;;;;;;;2.05;1.38;;;;;;;13.09;57.40;98346.31;5107956;28;20059;-69
2023/08/07 07:15:20;;;;;;;4.03;1.27;;;;;;;13.08;57.86;98375.69;5126864;28;20200;-69
2023/08/07 07:17:46;;;;;;;3.22;1.27;;;;;;;12.82;57.88;98319.28;5128912;28;20089;-69
2023/08/07 07:20:13;;;;;;;3.22;1.30;;;;;;;13.03;57.69;98375.22;5128732;28;20036;-70
2023/08/07 07:22:41;;;;;;;1.92;1.30;;;;;;;13.05;58.27;98347.53;5130082;28;20356;-70
